Close

Questo sito utlizza cookie. Può leggere come li usiamo nella nostra Privacy Policy.

Ronchi Tower
Ronchi Tower

From Facebook

METAR & TAF

2018/12/11 08:50 LIPQ 110850Z 35004KT CAVOK 04/M02 Q1017
2018/12/11 06:24 TAF LIPQ 110500Z 1106/1206 VRB05KT CAVOK
2018/12/11 08:50 LIPZ 110850Z 30006KT 280V350 CAVOK 04/M02 Q1018 NOSIG
2018/12/11 06:24 TAF LIPZ 110500Z 1106/1212 VRB05KT CAVOK BECMG 1108/1111 36010KT BECMG 1116/1118 VRB05KT
2018/12/11 08:50 LIPH 110850Z VRB02KT CAVOK 05/M00 Q1018
2018/12/11 06:24 TAF LIPH 110500Z 1106/1206 VRB05KT CAVOK
2018/12/11 08:50 LIRF 110850Z 06005KT 030V140 CAVOK 07/00 Q1018 NOSIG
2018/12/11 06:26 TAF LIRF 110500Z 1106/1212 03008KT CAVOK BECMG 1120/1122 13010KT
2018/12/11 08:50 LIML 110850Z 01008KT CAVOK 09/M04 Q1019 NOSIG
2018/12/11 06:24 TAF LIML 110500Z 1106/1206 VRB05KT CAVOK
2018/12/11 08:50 EDDM 110850Z 26016KT 9999 FEW012 SCT022 01/M01 Q1021 NOSIG
2018/12/11 06:27 TAF EDDM 110500Z 1106/1212 26015G25KT 9999 FEW015 BKN030 PROB40 TEMPO 1110/1116 29020G30KT 2000 SHSN BKN012TCU BECMG 1116/1118 26010KT PROB30 TEMPO 1116/1212 4000 -SN BKN013 BECMG 1209/1211 31005KT
2018/12/11 08:50 EGSS 110850Z 20002KT 2500 BCFG FEW015 01/01 Q1026
2018/12/11 06:09 TAF EGSS 110504Z 1106/1212 VRB04KT 6000 FEW010 TEMPO 1106/1111 0200 FG VV/// BECMG 1111/1114 13010KT 9999 PROB30 TEMPO 1111/1113 BKN004 PROB30 TEMPO 1202/1205 6000 BKN012

FlightRadar24

Radar Meteo

Traffic data

Marzo 2018

Passeggeri: 57555-3,4% (rank: 23)
Nazionali 39679 +1,0% 21°
Internazionali 17689 -11,7% 23°

Movimenti: 1074-16,3% (rank: 21)
Tot commerciale 653 -10,3% 22°
Aviazione generale 421 -24,1%

Cargo (tons): 96,3109,5% (rank: 18)

Gennaio - Marzo 2018

Passeggeri: 155953-1,4% (rank: 23)
Nazionali 108431 +3,9% 21°
Internazionali 47066 -11,5% 22°

Movimenti: 3163-14,5% (rank: 21)
Tot commerciale 1876 -7,3% 21°
Aviazione generale 1287 -23,3%

Cargo (tons): 125,6+16,7% (rank: 21)

Photo

Douglas DC-6B
Douglas DC-6B
Distinct views: 17
Douglas DC-6B
Douglas DC-6B
Distinct views: 60
Douglas DC-6B
Douglas DC-6B
Distinct views: 179
Bombardier BD-700 Global Express
Bombardier BD-700 Global Express
Total views: 2112